Time;durP1;ratioP1;P1;durP2;ratioP2;P2;SDS_P1;SDS_P2;PMS_P1;PMS_P2;Temp;Humidity;BMP_temperature;BMP_pressure;BME280_temperature;BME280_humidity;BME280_pressure;Samples;Min_cycle;Max_cycle;Signal;HPM_P1;HPM_P2
2022/05/25 05:43:37;;;;;;;;;;;;;;;23.06;55.72;100263.47;5091616;23;19944;-81
2022/05/25 05:46:22;;;;;;;;;;;;;;;23.34;54.49;100265.19;4968086;28;19918;-81
2022/05/25 05:49:11;;;;;;;;;;;;;;;23.51;53.59;100277.31;4956431;28;19915;-84
2022/05/25 05:51:56;;;;;;;;;;;;;;;23.67;53.02;100286.63;4967977;28;20317;-79
2022/05/25 05:57:38;;;;;;;;;;;;;;;23.97;51.21;100290.66;4928175;29;19923;-59
2022/05/25 06:00:22;;;;;;;;;;;;;;;24.12;50.53;100281.72;4915145;29;19915;-60
2022/05/25 06:03:08;;;;;;;;;;;;;;;24.34;49.89;100284.22;4917037;29;19915;-60
2022/05/25 06:05:52;;;;;;;;;;;;;;;24.54;49.61;100280.31;4911195;29;19915;-60
2022/05/25 06:08:37;;;;;;;;;;;;;;;24.78;48.65;100280.38;4914218;29;19914;-60
2022/05/25 06:11:23;;;;;;;;;;;;;;;24.89;48.83;100281.78;4915437;29;19915;-60
2022/05/25 06:14:08;;;;;;;;;;;;;;;25.08;46.72;100281.06;4924979;29;19918;-60
2022/05/25 06:19:56;;;;;;;;;;;;;;;24.84;46.60;100300.94;4902727;29;19914;-60
2022/05/25 06:22:41;;;;;;;;;;;;;;;25.10;46.33;100300.09;4914012;29;19915;-60
2022/05/25 06:25:28;;;;;;;;;;;;;;;25.64;45.43;100306.31;4914821;29;19930;-60
2022/05/25 06:28:12;;;;;;;;;;;;;;;25.63;44.48;100313.09;4913854;29;19915;-62
2022/05/25 06:30:57;;;;;;;;;;;;;;;26.60;43.19;100321.00;4917160;29;19915;-60
2022/05/25 06:33:43;;;;;;;;;;;;;;;27.49;41.66;100319.56;4907378;29;19923;-60
2022/05/25 06:36:48;;;;;;;;;;;;;;;28.72;38.65;100320.81;4907828;29;19919;-60
2022/05/25 06:39:34;;;;;;;;;;;;;;;29.08;36.64;100333.63;4914406;29;19915;-61
2022/05/25 06:42:19;;;;;;;;;;;;;;;27.38;40.25;100330.28;4909877;29;19923;-61
2022/05/25 06:45:11;;;;;;;;;;;;;;;28.13;38.16;100337.41;4911373;29;19919;-61
2022/05/25 06:47:56;;;;;;;;;;;;;;;28.70;36.66;100339.25;4911451;29;19915;-60
2022/05/25 06:50:42;;;;;;;;;;;;;;;27.69;38.32;100342.59;4915657;29;19914;-61
2022/05/25 06:53:27;;;;;;;;;;;;;;;27.06;39.57;100342.25;4912102;29;19919;-61
2022/05/25 06:56:11;;;;;;;;;;;;;;;26.67;40.63;100337.56;4913438;29;19919;-62
2022/05/25 06:58:57;;;;;;;;;;;;;;;26.54;41.41;100340.25;4924965;29;19914;-59
2022/05/25 07:01:42;;;;;;;;;;;;;;;26.24;42.19;100344.13;4924903;29;19915;-60
2022/05/25 07:04:27;;;;;;;;;;;;;;;26.20;42.70;100346.16;4905082;29;19915;-60
2022/05/25 07:07:12;;;;;;;;;;;;;;;25.86;42.68;100348.44;4911637;29;19915;-60
2022/05/25 07:09:57;;;;;;;;;;;;;;;25.59;43.08;100345.81;4919107;29;19915;-60
2022/05/25 07:12:42;;;;;;;;;;;;;;;25.33;44.02;100349.44;4899952;29;19915;-59
2022/05/25 07:15:27;;;;;;;;;;;;;;;25.33;44.57;100350.22;4917496;29;19919;-61
2022/05/25 07:18:11;;;;;;;;;;;;;;;25.57;44.37;100350.22;4900237;29;19915;-61
2022/05/25 07:21:02;;;;;;;;;;;;;;;25.69;44.25;100357.94;4909578;29;20275;-61
2022/05/25 07:23:49;;;;;;;;;;;;;;;25.81;44.12;100362.88;4912860;29;19914;-61
2022/05/25 07:26:54;;;;;;;;;;;;;;;25.82;43.86;100373.59;4922677;29;19923;-61
2022/05/25 07:29:39;;;;;;;;;;;;;;;25.85;44.11;100374.75;4904144;29;19915;-61
2022/05/25 07:32:24;;;;;;;;;;;;;;;25.55;44.69;100384.03;4911606;29;19914;-62
2022/05/25 07:35:10;;;;;;;;;;;;;;;25.84;44.66;100387.13;4908494;29;19919;-61
2022/05/25 07:37:57;;;;;;;;;;;;;;;25.97;45.11;100393.63;4907355;29;20382;-61
2022/05/25 07:40:42;;;;;;;;;;;;;;;26.13;45.41;100402.06;4921698;29;19915;-61
2022/05/25 07:43:30;;;;;;;;;;;;;;;26.37;44.87;100400.78;4915855;29;19915;-61
2022/05/25 07:46:15;;;;;;;;;;;;;;;26.54;44.73;100401.63;4918354;29;20391;-61
2022/05/25 07:49:00;;;;;;;;;;;;;;;26.57;45.25;100409.13;4919087;29;19919;-61
2022/05/25 07:51:45;;;;;;;;;;;;;;;26.52;45.24;100412.41;4918429;29;20371;-61
2022/05/25 07:54:30;;;;;;;;;;;;;;;26.75;43.91;100422.69;4919451;29;20530;-61
2022/05/25 07:57:15;;;;;;;;;;;;;;;26.90;44.34;100412.03;4919348;29;19915;-62
2022/05/25 07:59:59;;;;;;;;;;;;;;;26.62;45.23;100416.97;4910030;29;19919;-61
2022/05/25 08:05:49;;;;;;;;;;;;;;;26.85;44.97;100418.88;4912123;29;20382;-61
2022/05/25 08:08:34;;;;;;;;;;;;;;;26.39;46.18;100417.88;4911630;29;19923;-62
2022/05/25 08:11:21;;;;;;;;;;;;;;;26.74;45.48;100429.47;4908292;29;19927;-60
2022/05/25 08:14:06;;;;;;;;;;;;;;;26.83;45.76;100427.66;4908882;29;19915;-61
2022/05/25 08:16:53;;;;;;;;;;;;;;;26.26;47.13;100430.88;4909966;29;19919;-61
2022/05/25 08:19:38;;;;;;;;;;;;;;;26.71;45.94;100435.94;4909771;29;19915;-61
2022/05/25 08:22:24;;;;;;;;;;;;;;;26.82;45.62;100436.47;4908657;29;19915;-61
2022/05/25 08:25:10;;;;;;;;;;;;;;;26.92;45.46;100441.06;4911687;29;19914;-61
2022/05/25 08:27:55;;;;;;;;;;;;;;;27.04;44.78;100440.38;4921209;29;19923;-61
2022/05/25 08:30:41;;;;;;;;;;;;;;;27.19;45.01;100438.03;4907915;29;19915;-61
2022/05/25 08:33:26;;;;;;;;;;;;;;;26.70;45.90;100446.31;4915254;29;19915;-62
2022/05/25 08:36:10;;;;;;;;;;;;;;;26.61;46.46;100445.31;4910942;29;19923;-68
2022/05/25 08:38:55;;;;;;;;;;;;;;;26.18;47.32;100446.16;4921248;29;19915;-62
2022/05/25 08:41:42;;;;;;;;;;;;;;;26.02;48.06;100454.44;4927227;29;19915;-62
2022/05/25 08:44:27;;;;;;;;;;;;;;;25.72;49.47;100443.44;4916172;29;20367;-62
2022/05/25 08:47:12;;;;;;;;;;;;;;;25.66;49.63;100442.34;4917724;29;19915;-62
2022/05/25 08:49:57;;;;;;;;;;;;;;;25.49;51.12;100447.78;4918419;29;19919;-62
2022/05/25 08:52:43;;;;;;;;;;;;;;;25.63;50.10;100446.78;4917956;29;19915;-62
2022/05/25 08:55:28;;;;;;;;;;;;;;;25.66;49.80;100440.34;4919379;29;19919;-62
2022/05/25 08:58:14;;;;;;;;;;;;;;;25.78;50.21;100441.75;4918099;29;19915;-62
2022/05/25 09:01:01;;;;;;;;;;;;;;;25.84;50.10;100443.63;4918280;29;19915;-62
2022/05/25 09:03:57;;;;;;;;;;;;;;;25.90;50.22;100449.50;4918027;29;20298;-62
2022/05/25 09:06:48;;;;;;;;;;;;;;;25.97;50.17;100449.34;4917960;29;19915;-62
2022/05/25 09:09:46;;;;;;;;;;;;;;;26.05;49.45;100445.22;4918054;29;19915;-62
2022/05/25 09:12:31;;;;;;;;;;;;;;;26.05;48.81;100447.22;4917663;29;19919;-61
2022/05/25 09:15:15;;;;;;;;;;;;;;;26.17;48.77;100441.78;4917812;29;19923;-61
2022/05/25 09:18:05;;;;;;;;;;;;;;;26.10;48.22;100453.09;4917669;29;19916;-61
2022/05/25 09:20:50;;;;;;;;;;;;;;;26.19;48.13;100453.31;4916347;29;19915;-62
2022/05/25 09:23:35;;;;;;;;;;;;;;;26.24;47.87;100455.63;4922717;29;19915;-62
2022/05/25 09:26:19;;;;;;;;;;;;;;;26.17;47.48;100468.88;4904870;29;20375;-61
2022/05/25 09:29:06;;;;;;;;;;;;;;;26.27;47.49;100463.13;4900341;29;19923;-61
2022/05/25 09:31:53;;;;;;;;;;;;;;;26.36;46.66;100465.38;4904167;29;19919;-61
2022/05/25 09:34:42;;;;;;;;;;;;;;;26.49;46.63;100471.06;4917059;29;20299;-61
2022/05/25 09:37:33;;;;;;;;;;;;;;;26.42;46.34;100468.41;4916370;29;20387;-61
2022/05/25 09:40:22;;;;;;;;;;;;;;;26.28;47.16;100472.28;4917104;29;19915;-62
2022/05/25 09:43:12;;;;;;;;;;;;;;;26.13;46.34;100480.09;4916754;29;19915;-60
2022/05/25 09:45:58;;;;;;;;;;;;;;;26.02;45.94;100476.72;4912164;29;20624;-60
2022/05/25 09:48:48;;;;;;;;;;;;;;;26.05;46.38;100487.03;4908575;29;19918;-60
2022/05/25 09:51:49;;;;;;;;;;;;;;;26.19;46.07;100483.97;4918631;29;19914;-60
2022/05/25 09:54:36;;;;;;;;;;;;;;;26.23;45.47;100481.16;4905301;29;19919;-60
2022/05/25 09:57:25;;;;;;;;;;;;;;;26.31;44.53;100469.41;4914835;29;19919;-61
2022/05/25 10:00:15;;;;;;;;;;;;;;;26.50;44.94;100475.44;4926120;29;19915;-61
2022/05/25 10:03:12;;;;;;;;;;;;;;;26.53;44.72;100480.94;4909463;29;19919;-60
2022/05/25 10:05:57;;;;;;;;;;;;;;;26.54;44.25;100482.50;4910003;29;19915;-60
2022/05/25 10:08:42;;;;;;;;;;;;;;;26.67;44.14;100482.63;4910154;29;20374;-60
2022/05/25 10:11:33;;;;;;;;;;;;;;;26.71;42.78;100483.38;4904685;29;19915;-60
2022/05/25 10:14:21;;;;;;;;;;;;;;;26.70;43.76;100479.00;4919691;29;20275;-61
2022/05/25 10:17:08;;;;;;;;;;;;;;;26.57;43.27;100475.28;4904923;29;19923;-60
2022/05/25 10:19:54;;;;;;;;;;;;;;;26.62;44.44;100478.34;4905669;29;19915;-60
2022/05/25 10:22:44;;;;;;;;;;;;;;;26.62;44.51;100471.97;4916472;29;20375;-60
2022/05/25 10:25:42;;;;;;;;;;;;;;;26.67;44.19;100475.06;4922682;29;19916;-60
2022/05/25 10:28:33;;;;;;;;;;;;;;;26.69;44.23;100472.63;4914523;29;19915;-60
2022/05/25 10:37:36;;;;;;;;;;;;;;;26.71;43.61;100486.94;4921034;29;20282;-60
2022/05/25 10:40:22;;;;;;;;;;;;;;;26.69;43.17;100491.38;4912925;29;19918;-60
2022/05/25 10:43:13;;;;;;;;;;;;;;;26.73;43.47;100490.06;4915179;29;19915;-60
2022/05/25 10:46:00;;;;;;;;;;;;;;;26.70;43.95;100485.38;4917265;29;19916;-60
2022/05/25 10:48:54;;;;;;;;;;;;;;;26.74;44.34;100488.06;4905747;29;19915;-59
2022/05/25 10:51:45;;;;;;;;;;;;;;;26.78;44.01;100486.00;4917061;29;20367;-60
2022/05/25 10:54:46;;;;;;;;;;;;;;;26.82;42.92;100481.13;4907288;29;20379;-60
2022/05/25 10:57:48;;;;;;;;;;;;;;;26.77;43.09;100478.84;4918709;29;20299;-59
2022/05/25 11:00:38;;;;;;;;;;;;;;;26.83;42.97;100477.13;4910739;29;19923;-60
2022/05/25 11:03:25;;;;;;;;;;;;;;;26.88;43.04;100467.47;4906793;29;19915;-60
2022/05/25 11:06:25;;;;;;;;;;;;;;;26.83;43.18;100468.75;4921902;29;19915;-60
2022/05/25 11:09:28;;;;;;;;;;;;;;;26.86;42.29;100473.47;4918282;29;19915;-60
2022/05/25 11:12:19;;;;;;;;;;;;;;;26.95;41.94;100484.06;4910763;29;19916;-60
2022/05/25 11:15:07;;;;;;;;;;;;;;;27.06;42.02;100482.63;4912003;29;19915;-62
2022/05/25 11:18:27;;;;;;;;;;;;;;;27.12;41.86;100480.88;4905845;29;19919;-60
2022/05/25 11:21:30;;;;;;;;;;;;;;;27.14;41.75;100470.06;4913253;29;20175;-59
2022/05/25 11:24:26;;;;;;;;;;;;;;;27.12;42.24;100466.16;4910888;29;19915;-59
2022/05/25 11:27:26;;;;;;;;;;;;;;;27.07;42.71;100477.81;4903309;29;19920;-60
2022/05/25 11:30:30;;;;;;;;;;;;;;;27.15;42.82;100471.63;4907264;29;19927;-60
2022/05/25 11:33:32;;;;;;;;;;;;;;;27.30;42.10;100471.28;4908698;29;19915;-60
2022/05/25 11:36:37;;;;;;;;;;;;;;;27.34;41.61;100472.00;4915775;28;19919;-60
2022/05/25 11:39:31;;;;;;;;;;;;;;;27.44;41.62;100465.34;4907263;29;20295;-59
2022/05/25 11:42:21;;;;;;;;;;;;;;;27.59;41.63;100472.19;4901492;29;19915;-59
2022/05/25 11:45:15;;;;;;;;;;;;;;;27.67;42.32;100467.22;4899901;29;20279;-59
2022/05/25 11:48:00;;;;;;;;;;;;;;;27.58;42.78;100465.81;4900878;29;19915;-60
2022/05/25 11:50:44;;;;;;;;;;;;;;;27.65;41.83;100464.88;4901046;29;19915;-59
2022/05/25 11:53:42;;;;;;;;;;;;;;;27.64;42.12;100461.28;4912367;29;19915;-60
2022/05/25 11:56:45;;;;;;;;;;;;;;;27.59;41.60;100456.22;4955495;23;19922;-62
2022/05/25 11:59:44;;;;;;;;;;;;;;;27.59;41.29;100455.44;4917368;29;19923;-61
2022/05/25 12:02:35;;;;;;;;;;;;;;;27.49;41.29;100459.25;4913109;29;19915;-60
2022/05/25 12:05:23;;;;;;;;;;;;;;;27.50;41.07;100461.66;4913149;29;19919;-61
2022/05/25 12:08:42;;;;;;;;;;;;;;;27.64;40.98;100461.28;4910486;29;19923;-60
2022/05/25 12:11:27;;;;;;;;;;;;;;;27.64;41.43;100458.50;4914682;29;19915;-60
2022/05/25 12:14:34;;;;;;;;;;;;;;;27.60;42.66;100462.59;4910086;29;19915;-61
2022/05/25 12:17:27;;;;;;;;;;;;;;;27.55;41.87;100465.91;4896927;29;19923;-62
2022/05/25 12:20:13;;;;;;;;;;;;;;;27.58;41.77;100470.66;4903241;29;19916;-62
2022/05/25 12:23:00;;;;;;;;;;;;;;;27.48;42.31;100469.63;4908244;29;19922;-60
2022/05/25 12:25:50;;;;;;;;;;;;;;;27.50;41.72;100474.81;4918940;29;19915;-61
2022/05/25 12:28:37;;;;;;;;;;;;;;;27.52;42.10;100469.59;4920484;29;19915;-61
2022/05/25 12:31:24;;;;;;;;;;;;;;;27.53;42.45;100471.94;4913374;29;19915;-61
2022/05/25 12:34:11;;;;;;;;;;;;;;;27.68;42.06;100469.59;4900460;29;19916;-61
2022/05/25 12:36:57;;;;;;;;;;;;;;;27.66;41.57;100466.44;4896393;29;19923;-61
2022/05/25 12:39:42;;;;;;;;;;;;;;;27.69;41.81;100471.13;4916859;29;19915;-61
2022/05/25 12:42:26;;;;;;;;;;;;;;;27.75;41.56;100474.19;4921039;29;19915;-60
2022/05/25 12:48:38;;;;;;;;;;;;;;;27.99;40.92;100473.53;4917268;29;19923;-60
2022/05/25 12:51:36;;;;;;;;;;;;;;;28.14;40.59;100465.56;4917859;29;20304;-61
2022/05/25 12:54:28;;;;;;;;;;;;;;;28.18;40.81;100469.09;4922454;29;19932;-60
2022/05/25 12:57:22;;;;;;;;;;;;;;;28.27;40.46;100471.22;4917396;29;19919;-61
2022/05/25 13:00:15;;;;;;;;;;;;;;;28.29;40.16;100474.38;4917549;29;19915;-62
2022/05/25 13:03:14;;;;;;;;;;;;;;;28.41;40.03;100477.22;4915898;29;19918;-62
2022/05/25 13:06:00;;;;;;;;;;;;;;;28.45;39.22;100472.28;4917460;29;19915;-61
2022/05/25 13:08:50;;;;;;;;;;;;;;;28.52;38.04;100467.72;4909993;29;20283;-61
2022/05/25 13:11:37;;;;;;;;;;;;;;;28.53;38.37;100467.28;4916787;29;20307;-62
2022/05/25 13:14:22;;;;;;;;;;;;;;;28.42;38.58;100467.59;4917078;29;19915;-61
2022/05/25 13:17:07;;;;;;;;;;;;;;;28.46;38.04;100467.47;4917198;29;19923;-61
2022/05/25 13:19:52;;;;;;;;;;;;;;;28.52;37.97;100476.13;4920583;29;19915;-62
2022/05/25 13:22:36;;;;;;;;;;;;;;;28.56;38.10;100468.41;4917076;29;20282;-61
2022/05/25 13:25:40;;;;;;;;;;;;;;;28.56;37.63;100462.81;4916800;29;19919;-61
2022/05/25 13:28:48;;;;;;;;;;;;;;;28.56;37.86;100457.22;4916596;29;19915;-62
2022/05/25 13:31:44;;;;;;;;;;;;;;;28.58;37.45;100466.75;4916412;29;19915;-62
2022/05/25 13:34:31;;;;;;;;;;;;;;;28.53;36.73;100461.69;4916676;29;19915;-60
2022/05/25 13:37:15;;;;;;;;;;;;;;;28.46;38.03;100467.47;4918431;29;20303;-61
2022/05/25 13:40:00;;;;;;;;;;;;;;;28.36;37.15;100457.38;4917180;29;19915;-60
2022/05/25 13:42:46;;;;;;;;;;;;;;;28.36;37.94;100463.78;4932174;29;19914;-60
2022/05/25 13:45:31;;;;;;;;;;;;;;;28.33;37.25;100453.47;4917181;29;19915;-61
2022/05/25 13:48:17;;;;;;;;;;;;;;;28.37;37.56;100462.53;4916316;29;19915;-61
2022/05/25 13:51:02;;;;;;;;;;;;;;;28.38;38.59;100452.94;4916509;29;20390;-61
2022/05/25 13:53:47;;;;;;;;;;;;;;;28.32;38.19;100462.31;4909682;29;19915;-60
2022/05/25 13:56:32;;;;;;;;;;;;;;;28.27;37.24;100451.66;4916482;29;19919;-60
2022/05/25 13:59:19;;;;;;;;;;;;;;;28.31;36.98;100450.31;4914518;29;19915;-61
2022/05/25 14:02:13;;;;;;;;;;;;;;;28.21;36.07;100445.03;4916729;29;19919;-62
2022/05/25 14:05:01;;;;;;;;;;;;;;;28.23;36.85;100445.38;4929723;29;19919;-61
2022/05/25 14:07:45;;;;;;;;;;;;;;;28.28;35.99;100456.03;4918911;29;20557;-61
2022/05/25 14:13:36;;;;;;;;;;;;;;;28.23;35.05;100457.34;4928698;29;19923;-61
2022/05/25 14:16:23;;;;;;;;;;;;;;;28.27;34.17;100457.25;4918427;29;19919;-61
2022/05/25 14:19:08;;;;;;;;;;;;;;;28.32;34.45;100460.28;4916884;29;20548;-61
2022/05/25 14:21:54;;;;;;;;;;;;;;;28.31;34.43;100458.72;4915649;29;19915;-61
2022/05/25 14:24:41;;;;;;;;;;;;;;;28.29;34.30;100452.00;4916561;29;19915;-59
2022/05/25 14:27:32;;;;;;;;;;;;;;;28.23;34.04;100448.19;4915426;29;19915;-59
2022/05/25 14:30:19;;;;;;;;;;;;;;;28.24;35.50;100444.91;4936118;28;19922;-59
2022/05/25 14:33:03;;;;;;;;;;;;;;;28.26;34.34;100455.66;4907704;29;19919;-59
2022/05/25 14:35:50;;;;;;;;;;;;;;;28.21;35.13;100450.63;4910790;29;19915;-59
2022/05/25 14:38:37;;;;;;;;;;;;;;;28.23;34.89;100453.78;4916401;29;20383;-59
2022/05/25 14:41:25;;;;;;;;;;;;;;;28.24;35.95;100456.09;4915846;29;19915;-59
2022/05/25 14:44:28;;;;;;;;;;;;;;;28.25;35.44;100454.09;4916150;29;20367;-58
2022/05/25 14:47:35;;;;;;;;;;;;;;;28.24;36.12;100466.53;4908916;29;19914;-59
2022/05/25 14:50:35;;;;;;;;;;;;;;;28.24;35.52;100467.28;4914393;29;19915;-60
2022/05/25 14:53:29;;;;;;;;;;;;;;;28.22;35.03;100466.97;4914030;29;19918;-60
2022/05/25 14:56:26;;;;;;;;;;;;;;;28.22;35.26;100463.38;4917448;29;20351;-59
2022/05/25 14:59:13;;;;;;;;;;;;;;;28.22;35.42;100474.56;4915449;29;19919;-59
2022/05/25 15:01:58;;;;;;;;;;;;;;;28.25;36.12;100474.47;4918719;29;20279;-59
2022/05/25 15:04:43;;;;;;;;;;;;;;;28.24;36.00;100483.31;4915641;29;19915;-59
2022/05/25 15:07:27;;;;;;;;;;;;;;;28.25;35.91;100493.25;4914903;29;19919;-59
2022/05/25 15:10:12;;;;;;;;;;;;;;;28.19;35.99;100489.44;4912061;29;19915;-59
2022/05/25 15:12:57;;;;;;;;;;;;;;;28.09;36.48;100482.88;4909352;29;19915;-59
2022/05/25 15:18:59;;;;;;;;;;;;;;;28.01;36.73;100485.06;4915578;29;19919;-59
2022/05/25 15:21:47;;;;;;;;;;;;;;;28.01;36.85;100487.09;4903453;29;19919;-60
2022/05/25 15:24:31;;;;;;;;;;;;;;;28.02;37.19;100478.28;4920470;29;19915;-60
2022/05/25 15:27:23;;;;;;;;;;;;;;;28.14;37.37;100487.19;4935478;29;19917;-60
2022/05/25 15:30:28;;;;;;;;;;;;;;;28.14;37.28;100476.00;4919929;29;19915;-60
2022/05/25 15:33:13;;;;;;;;;;;;;;;28.22;37.36;100466.19;4926671;29;19966;-59
2022/05/25 15:36:02;;;;;;;;;;;;;;;28.24;37.36;100475.69;4921169;29;20290;-60
2022/05/25 15:38:50;;;;;;;;;;;;;;;28.25;37.68;100473.69;4916877;29;20382;-58
2022/05/25 15:41:35;;;;;;;;;;;;;;;28.22;37.16;100492.13;4925564;29;20373;-59
2022/05/25 15:44:19;;;;;;;;;;;;;;;28.17;36.85;100486.28;4935982;29;19919;-59
2022/05/25 15:47:04;;;;;;;;;;;;;;;28.11;36.82;100491.59;4934116;29;20378;-58
2022/05/25 15:49:48;;;;;;;;;;;;;;;28.13;37.13;100491.22;4915602;29;19915;-61
2022/05/25 15:52:33;;;;;;;;;;;;;;;28.10;36.78;100490.03;4915558;29;19915;-58
2022/05/25 15:55:17;;;;;;;;;;;;;;;28.08;37.47;100486.91;4914902;29;20355;-59
2022/05/25 15:58:03;;;;;;;;;;;;;;;28.02;36.87;100491.47;4914802;29;19919;-59
2022/05/25 16:00:50;;;;;;;;;;;;;;;28.00;37.24;100493.91;4941578;29;19915;-59
2022/05/25 16:03:41;;;;;;;;;;;;;;;27.87;36.17;100488.25;4914714;29;20298;-58
2022/05/25 16:06:28;;;;;;;;;;;;;;;27.83;36.93;100493.16;4918378;29;19915;-59
2022/05/25 16:09:14;;;;;;;;;;;;;;;27.78;36.60;100499.28;4918503;29;19919;-59
2022/05/25 16:12:04;;;;;;;;;;;;;;;27.73;35.94;100505.41;4918187;29;19919;-59
2022/05/25 16:14:51;;;;;;;;;;;;;;;27.76;36.07;100504.50;4916943;29;19915;-59
2022/05/25 16:17:36;;;;;;;;;;;;;;;27.78;36.62;100492.91;4917607;29;19927;-59
2022/05/25 16:20:21;;;;;;;;;;;;;;;27.75;36.57;100497.34;4917633;29;19919;-59
2022/05/25 16:23:05;;;;;;;;;;;;;;;27.67;36.74;100498.75;4917093;29;19915;-59
2022/05/25 16:25:50;;;;;;;;;;;;;;;27.70;37.09;100499.88;4918129;29;19940;-59
2022/05/25 16:28:36;;;;;;;;;;;;;;;27.67;37.25;100501.53;4917026;29;19915;-59
2022/05/25 16:31:25;;;;;;;;;;;;;;;27.61;36.85;100497.69;4918601;29;19915;-59
2022/05/25 16:34:10;;;;;;;;;;;;;;;27.60;37.75;100504.50;4929513;29;19914;-59
2022/05/25 16:36:55;;;;;;;;;;;;;;;27.55;37.12;100514.19;4913346;29;20354;-59
2022/05/25 16:39:39;;;;;;;;;;;;;;;27.51;37.48;100512.72;4925632;29;19915;-59
2022/05/25 16:42:24;;;;;;;;;;;;;;;27.51;37.97;100521.88;4936529;29;19918;-59
2022/05/25 16:45:10;;;;;;;;;;;;;;;27.51;38.04;100521.09;4937184;29;20274;-59
2022/05/25 16:47:55;;;;;;;;;;;;;;;27.43;37.88;100523.22;4936958;29;19914;-59
2022/05/25 16:50:39;;;;;;;;;;;;;;;27.41;37.38;100520.09;4910369;29;19914;-60
2022/05/25 16:53:24;;;;;;;;;;;;;;;27.39;37.35;100521.75;4917110;29;19919;-59
2022/05/25 16:56:10;;;;;;;;;;;;;;;27.38;38.43;100523.00;4917297;29;20359;-60
2022/05/25 16:58:55;;;;;;;;;;;;;;;27.35;38.66;100530.22;4918501;29;20549;-60
2022/05/25 17:01:40;;;;;;;;;;;;;;;27.36;38.89;100519.84;4911648;29;19915;-59
2022/05/25 17:04:25;;;;;;;;;;;;;;;27.36;39.13;100522.63;4917215;29;20391;-59
2022/05/25 17:07:10;;;;;;;;;;;;;;;27.30;39.39;100521.56;4914966;29;19915;-58
2022/05/25 17:09:54;;;;;;;;;;;;;;;27.27;39.63;100523.22;4916136;29;19918;-58
2022/05/25 17:12:39;;;;;;;;;;;;;;;27.18;39.70;100529.41;4918357;29;19915;-59
2022/05/25 17:15:23;;;;;;;;;;;;;;;27.19;39.89;100535.75;4915679;29;19915;-59
2022/05/25 17:18:08;;;;;;;;;;;;;;;27.21;40.08;100536.13;4917390;29;19919;-60
2022/05/25 17:20:52;;;;;;;;;;;;;;;27.21;40.12;100536.91;4915115;29;19915;-61
2022/05/25 17:23:37;;;;;;;;;;;;;;;27.20;40.04;100543.72;4916756;29;19915;-59
2022/05/25 17:26:21;;;;;;;;;;;;;;;27.20;40.63;100546.50;4916358;29;20405;-59
2022/05/25 17:29:06;;;;;;;;;;;;;;;27.19;40.58;100555.31;4916729;29;19915;-59
2022/05/25 17:31:51;;;;;;;;;;;;;;;27.14;40.81;100553.81;4916551;29;19915;-59
2022/05/25 17:34:36;;;;;;;;;;;;;;;27.15;41.07;100551.81;4917114;29;19916;-59
2022/05/25 17:43:27;;;;;;;;;;;;;;;27.06;41.06;100560.00;4914514;29;19915;-59
2022/05/25 17:46:11;;;;;;;;;;;;;;;27.03;41.19;100570.00;4915746;29;20387;-60
2022/05/25 17:48:56;;;;;;;;;;;;;;;27.03;41.12;100574.81;4915805;29;20367;-59
2022/05/25 17:51:45;;;;;;;;;;;;;;;27.03;41.18;100577.59;4913644;29;19915;-59
2022/05/25 17:54:30;;;;;;;;;;;;;;;27.02;41.40;100585.19;4917488;29;19915;-59
2022/05/25 17:57:15;;;;;;;;;;;;;;;27.01;41.27;100580.84;4940081;23;19946;-62
2022/05/25 17:59:59;;;;;;;;;;;;;;;27.01;41.44;100589.22;4929423;29;20290;-62
2022/05/25 18:02:44;;;;;;;;;;;;;;;27.03;41.71;100594.34;4930412;29;19914;-60
2022/05/25 18:05:31;;;;;;;;;;;;;;;27.03;41.62;100597.13;4953354;29;19914;-62
2022/05/25 18:08:16;;;;;;;;;;;;;;;27.01;41.99;100600.38;4938366;28;19914;-62
2022/05/25 18:11:00;;;;;;;;;;;;;;;26.99;41.88;100607.59;4915469;29;19923;-61
2022/05/25 18:13:46;;;;;;;;;;;;;;;26.96;42.23;100609.25;4928944;29;20374;-62
2022/05/25 18:16:32;;;;;;;;;;;;;;;26.94;42.41;100603.31;4938876;29;19915;-61
2022/05/25 18:19:18;;;;;;;;;;;;;;;26.91;42.68;100608.97;4936563;29;20165;-61
2022/05/25 18:22:04;;;;;;;;;;;;;;;26.88;43.26;100615.38;4934577;29;19914;-61
2022/05/25 18:24:49;;;;;;;;;;;;;;;26.83;43.21;100611.84;4937571;28;19914;-62
2022/05/25 18:27:34;;;;;;;;;;;;;;;26.82;43.55;100620.66;4940998;28;19922;-62
2022/05/25 18:30:19;;;;;;;;;;;;;;;26.80;43.77;100623.09;4951683;28;19918;-63
2022/05/25 18:33:04;;;;;;;;;;;;;;;26.77;43.66;100632.31;4936058;29;19922;-62
2022/05/25 18:35:49;;;;;;;;;;;;;;;26.74;44.02;100636.75;4942842;28;19914;-61
2022/05/25 18:38:33;;;;;;;;;;;;;;;26.72;44.36;100638.38;4949605;28;19918;-62
2022/05/25 18:41:18;;;;;;;;;;;;;;;26.69;44.53;100645.63;4946558;29;20370;-62
2022/05/25 18:44:02;;;;;;;;;;;;;;;26.67;44.60;100648.03;4946469;28;19914;-62
2022/05/25 18:46:47;;;;;;;;;;;;;;;26.65;44.60;100644.91;4928895;29;19915;-62
2022/05/25 18:49:32;;;;;;;;;;;;;;;26.62;45.19;100647.72;4934089;29;19914;-63
2022/05/25 18:52:16;;;;;;;;;;;;;;;26.61;44.79;100654.56;4931160;29;20362;-62
2022/05/25 18:55:01;;;;;;;;;;;;;;;26.58;44.94;100660.97;4938648;29;19918;-61
2022/05/25 18:57:46;;;;;;;;;;;;;;;26.55;45.01;100662.63;4939500;28;19918;-62
2022/05/25 19:00:31;;;;;;;;;;;;;;;26.52;45.91;100663.44;4934516;29;20370;-62
2022/05/25 19:03:16;;;;;;;;;;;;;;;26.51;45.89;100669.47;4933654;29;19914;-63
2022/05/25 19:06:00;;;;;;;;;;;;;;;26.46;46.05;100676.34;4935631;29;19915;-62
2022/05/25 19:08:45;;;;;;;;;;;;;;;26.41;45.84;100678.81;4936178;28;19919;-62
2022/05/25 19:11:29;;;;;;;;;;;;;;;26.37;45.80;100684.44;4946555;28;19914;-61
2022/05/25 19:14:16;;;;;;;;;;;;;;;26.35;45.42;100679.28;4934305;29;19914;-61
2022/05/25 19:17:01;;;;;;;;;;;;;;;26.30;45.37;100682.56;4934071;29;19919;-62
2022/05/25 19:19:46;;;;;;;;;;;;;;;26.28;45.18;100695.34;4934323;29;19915;-62
2022/05/25 19:22:36;;;;;;;;;;;;;;;26.28;45.60;100700.91;4933114;29;19915;-62
2022/05/25 19:25:24;;;;;;;;;;;;;;;26.26;45.27;100700.56;4933592;29;20115;-62
2022/05/25 19:28:12;;;;;;;;;;;;;;;26.24;45.42;100714.94;4933989;29;19915;-63
2022/05/25 19:30:57;;;;;;;;;;;;;;;26.21;46.51;100720.53;4934520;29;19914;-62
2022/05/25 19:33:45;;;;;;;;;;;;;;;26.16;46.96;100724.56;4934755;29;19915;-62
2022/05/25 19:36:34;;;;;;;;;;;;;;;26.13;47.08;100731.00;4934189;29;19915;-61
2022/05/25 19:39:19;;;;;;;;;;;;;;;26.10;46.76;100731.06;4936316;29;20370;-61
2022/05/25 19:42:08;;;;;;;;;;;;;;;26.06;46.61;100735.91;4939707;29;19915;-62
2022/05/25 19:44:54;;;;;;;;;;;;;;;26.02;46.35;100738.72;4934204;29;20382;-61
2022/05/25 19:47:40;;;;;;;;;;;;;;;26.00;45.78;100743.94;4948514;28;19915;-61
2022/05/25 19:53:31;;;;;;;;;;;;;;;25.92;46.38;100757.16;4939962;29;19914;-62
2022/05/25 19:56:15;;;;;;;;;;;;;;;25.91;46.29;100757.56;4939830;29;19919;-62
2022/05/25 19:59:00;;;;;;;;;;;;;;;25.86;46.29;100758.03;4937755;29;19919;-62
2022/05/25 20:01:45;;;;;;;;;;;;;;;25.84;46.44;100764.06;4939568;29;20301;-63
2022/05/25 20:04:30;;;;;;;;;;;;;;;25.77;46.89;100766.91;4939296;29;19922;-63
2022/05/25 20:07:15;;;;;;;;;;;;;;;25.72;46.57;100772.16;4936428;29;19915;-61
2022/05/25 20:10:01;;;;;;;;;;;;;;;25.64;46.89;100776.25;4939827;29;19919;-61
2022/05/25 20:12:46;;;;;;;;;;;;;;;25.63;46.93;100774.66;4939791;29;19915;-62
2022/05/25 20:15:38;;;;;;;;;;;;;;;25.53;46.89;100773.56;4940505;29;19914;-61
2022/05/25 20:18:24;;;;;;;;;;;;;;;25.45;47.26;100774.81;4949493;29;19935;-61
2022/05/25 20:21:09;;;;;;;;;;;;;;;25.38;47.62;100775.72;4951563;29;19930;-61
2022/05/25 20:23:53;;;;;;;;;;;;;;;25.33;47.64;100787.31;4946994;28;19918;-61
2022/05/25 20:26:38;;;;;;;;;;;;;;;25.29;47.89;100796.91;4943202;29;19923;-62
2022/05/25 20:29:23;;;;;;;;;;;;;;;25.30;47.83;100802.03;4938282;29;19915;-61
2022/05/25 20:32:09;;;;;;;;;;;;;;;25.31;48.10;100822.31;4938867;29;20366;-62
2022/05/25 20:34:58;;;;;;;;;;;;;;;25.28;48.27;100825.94;4941514;28;19914;-63
2022/05/25 20:37:43;;;;;;;;;;;;;;;25.26;48.14;100822.78;4940983;28;19923;-62